sensor_id;sensor_type;location;lat;lon;timestamp;P1;durP1;ratioP1;P2;durP2;ratioP2
4309;SDS011;2168;53.576;9.980;2024-03-08T00:01:47;0.10;;;0.10;;
4309;SDS011;2168;53.576;9.980;2024-03-08T00:04:13;0.20;;;0.20;;
4309;SDS011;2168;53.576;9.980;2024-03-08T00:06:40;0.20;;;0.20;;
4309;SDS011;2168;53.576;9.980;2024-03-08T00:09:05;0.10;;;0.10;;
4309;SDS011;2168;53.576;9.980;2024-03-08T00:11:32;0.10;;;0.10;;
4309;SDS011;2168;53.576;9.980;2024-03-08T00:13:58;0.10;;;0.10;;
4309;SDS011;2168;53.576;9.980;2024-03-08T00:16:23;0.10;;;0.10;;
4309;SDS011;2168;53.576;9.980;2024-03-08T00:18:48;0.10;;;0.10;;
4309;SDS011;2168;53.576;9.980;2024-03-08T00:21:14;0.20;;;0.20;;
4309;SDS011;2168;53.576;9.980;2024-03-08T00:23:40;0.10;;;0.10;;
4309;SDS011;2168;53.576;9.980;2024-03-08T00:26:05;0.10;;;0.10;;
4309;SDS011;2168;53.576;9.980;2024-03-08T00:28:31;0.10;;;0.10;;
4309;SDS011;2168;53.576;9.980;2024-03-08T00:30:56;0.10;;;0.10;;
4309;SDS011;2168;53.576;9.980;2024-03-08T00:33:22;0.10;;;0.10;;
4309;SDS011;2168;53.576;9.980;2024-03-08T00:35:47;0.10;;;0.10;;
4309;SDS011;2168;53.576;9.980;2024-03-08T00:38:12;0.10;;;0.10;;
4309;SDS011;2168;53.576;9.980;2024-03-08T00:40:38;0.10;;;0.10;;
4309;SDS011;2168;53.576;9.980;2024-03-08T00:43:03;0.10;;;0.10;;
4309;SDS011;2168;53.576;9.980;2024-03-08T00:45:29;0.20;;;0.20;;
4309;SDS011;2168;53.576;9.980;2024-03-08T00:47:54;0.20;;;0.20;;
4309;SDS011;2168;53.576;9.980;2024-03-08T00:50:19;0.10;;;0.10;;
4309;SDS011;2168;53.576;9.980;2024-03-08T00:52:45;0.20;;;0.20;;
4309;SDS011;2168;53.576;9.980;2024-03-08T00:55:11;0.10;;;0.10;;
4309;SDS011;2168;53.576;9.980;2024-03-08T00:57:37;0.10;;;0.10;;
4309;SDS011;2168;53.576;9.980;2024-03-08T01:00:04;0.10;;;0.10;;
4309;SDS011;2168;53.576;9.980;2024-03-08T01:02:32;0.10;;;0.10;;
4309;SDS011;2168;53.576;9.980;2024-03-08T01:05:00;0.10;;;0.10;;
4309;SDS011;2168;53.576;9.980;2024-03-08T01:07:25;0.10;;;0.10;;
4309;SDS011;2168;53.576;9.980;2024-03-08T01:09:51;0.10;;;0.10;;
4309;SDS011;2168;53.576;9.980;2024-03-08T01:12:16;0.10;;;0.10;;
4309;SDS011;2168;53.576;9.980;2024-03-08T01:14:41;0.10;;;0.10;;
4309;SDS011;2168;53.576;9.980;2024-03-08T01:17:06;0.10;;;0.10;;
4309;SDS011;2168;53.576;9.980;2024-03-08T01:19:31;0.10;;;0.10;;
4309;SDS011;2168;53.576;9.980;2024-03-08T01:21:58;0.10;;;0.10;;
4309;SDS011;2168;53.576;9.980;2024-03-08T01:24:23;0.10;;;0.10;;
4309;SDS011;2168;53.576;9.980;2024-03-08T01:26:48;0.10;;;0.10;;
4309;SDS011;2168;53.576;9.980;2024-03-08T01:29:13;0.10;;;0.10;;
4309;SDS011;2168;53.576;9.980;2024-03-08T01:31:38;0.10;;;0.10;;
4309;SDS011;2168;53.576;9.980;2024-03-08T01:34:04;0.10;;;0.10;;
4309;SDS011;2168;53.576;9.980;2024-03-08T01:36:29;0.10;;;0.10;;
4309;SDS011;2168;53.576;9.980;2024-03-08T01:38:55;0.10;;;0.10;;
4309;SDS011;2168;53.576;9.980;2024-03-08T01:41:20;0.10;;;0.10;;
4309;SDS011;2168;53.576;9.980;2024-03-08T01:43:45;0.10;;;0.10;;
4309;SDS011;2168;53.576;9.980;2024-03-08T01:46:12;0.10;;;0.10;;
4309;SDS011;2168;53.576;9.980;2024-03-08T01:48:40;0.10;;;0.10;;
4309;SDS011;2168;53.576;9.980;2024-03-08T01:51:06;0.10;;;0.10;;
4309;SDS011;2168;53.576;9.980;2024-03-08T01:53:32;0.10;;;0.10;;
4309;SDS011;2168;53.576;9.980;2024-03-08T01:55:57;0.20;;;0.20;;
4309;SDS011;2168;53.576;9.980;2024-03-08T01:58:23;0.10;;;0.10;;
4309;SDS011;2168;53.576;9.980;2024-03-08T02:00:48;0.10;;;0.10;;
4309;SDS011;2168;53.576;9.980;2024-03-08T02:03:16;0.10;;;0.10;;
4309;SDS011;2168;53.576;9.980;2024-03-08T02:05:42;0.10;;;0.10;;
4309;SDS011;2168;53.576;9.980;2024-03-08T02:08:09;0.10;;;0.10;;
4309;SDS011;2168;53.576;9.980;2024-03-08T02:10:41;0.10;;;0.10;;
4309;SDS011;2168;53.576;9.980;2024-03-08T02:13:07;0.10;;;0.10;;
4309;SDS011;2168;53.576;9.980;2024-03-08T02:18:16;0.10;;;0.10;;
4309;SDS011;2168;53.576;9.980;2024-03-08T02:20:49;0.10;;;0.10;;
4309;SDS011;2168;53.576;9.980;2024-03-08T02:23:14;0.10;;;0.10;;
4309;SDS011;2168;53.576;9.980;2024-03-08T02:25:40;0.20;;;0.20;;
4309;SDS011;2168;53.576;9.980;2024-03-08T02:28:05;0.20;;;0.20;;
4309;SDS011;2168;53.576;9.980;2024-03-08T02:30:30;0.10;;;0.10;;
4309;SDS011;2168;53.576;9.980;2024-03-08T02:32:55;0.10;;;0.10;;
4309;SDS011;2168;53.576;9.980;2024-03-08T02:35:21;0.10;;;0.10;;
4309;SDS011;2168;53.576;9.980;2024-03-08T02:37:46;0.10;;;0.10;;
4309;SDS011;2168;53.576;9.980;2024-03-08T02:40:12;0.10;;;0.10;;
4309;SDS011;2168;53.576;9.980;2024-03-08T02:42:38;0.10;;;0.10;;
4309;SDS011;2168;53.576;9.980;2024-03-08T02:45:03;0.20;;;0.20;;
4309;SDS011;2168;53.576;9.980;2024-03-08T02:47:30;0.10;;;0.10;;
4309;SDS011;2168;53.576;9.980;2024-03-08T02:49:56;0.10;;;0.10;;
4309;SDS011;2168;53.576;9.980;2024-03-08T02:52:21;0.10;;;0.10;;
4309;SDS011;2168;53.576;9.980;2024-03-08T02:54:47;0.13;;;0.13;;
4309;SDS011;2168;53.576;9.980;2024-03-08T02:57:12;0.10;;;0.10;;
4309;SDS011;2168;53.576;9.980;2024-03-08T02:59:39;0.10;;;0.10;;
4309;SDS011;2168;53.576;9.980;2024-03-08T03:02:05;0.20;;;0.20;;
4309;SDS011;2168;53.576;9.980;2024-03-08T03:04:31;0.10;;;0.10;;
4309;SDS011;2168;53.576;9.980;2024-03-08T03:06:56;0.10;;;0.10;;
4309;SDS011;2168;53.576;9.980;2024-03-08T03:09:23;0.10;;;0.10;;
4309;SDS011;2168;53.576;9.980;2024-03-08T03:11:52;0.10;;;0.10;;
4309;SDS011;2168;53.576;9.980;2024-03-08T03:14:17;0.10;;;0.10;;
4309;SDS011;2168;53.576;9.980;2024-03-08T03:16:44;0.13;;;0.13;;
4309;SDS011;2168;53.576;9.980;2024-03-08T03:19:09;0.20;;;0.20;;
4309;SDS011;2168;53.576;9.980;2024-03-08T03:21:34;0.10;;;0.10;;
4309;SDS011;2168;53.576;9.980;2024-03-08T03:24:00;0.10;;;0.10;;
4309;SDS011;2168;53.576;9.980;2024-03-08T03:26:26;0.10;;;0.10;;
4309;SDS011;2168;53.576;9.980;2024-03-08T03:28:51;0.10;;;0.10;;
4309;SDS011;2168;53.576;9.980;2024-03-08T03:31:16;0.20;;;0.20;;
4309;SDS011;2168;53.576;9.980;2024-03-08T03:33:43;0.10;;;0.10;;
4309;SDS011;2168;53.576;9.980;2024-03-08T03:36:08;0.10;;;0.10;;
4309;SDS011;2168;53.576;9.980;2024-03-08T03:38:34;0.10;;;0.10;;
4309;SDS011;2168;53.576;9.980;2024-03-08T03:41:00;0.20;;;0.20;;
4309;SDS011;2168;53.576;9.980;2024-03-08T03:43:32;0.20;;;0.20;;
4309;SDS011;2168;53.576;9.980;2024-03-08T03:45:57;0.20;;;0.20;;
4309;SDS011;2168;53.576;9.980;2024-03-08T03:48:23;0.10;;;0.10;;
4309;SDS011;2168;53.576;9.980;2024-03-08T03:50:48;0.00;;;0.00;;
4309;SDS011;2168;53.576;9.980;2024-03-08T03:53:15;0.10;;;0.10;;
4309;SDS011;2168;53.576;9.980;2024-03-08T03:55:40;0.10;;;0.10;;
4309;SDS011;2168;53.576;9.980;2024-03-08T03:58:05;0.10;;;0.10;;
4309;SDS011;2168;53.576;9.980;2024-03-08T04:00:30;0.10;;;0.10;;
4309;SDS011;2168;53.576;9.980;2024-03-08T04:02:56;0.10;;;0.10;;
4309;SDS011;2168;53.576;9.980;2024-03-08T04:05:24;0.10;;;0.10;;
4309;SDS011;2168;53.576;9.980;2024-03-08T04:07:49;0.10;;;0.10;;
4309;SDS011;2168;53.576;9.980;2024-03-08T04:10:14;0.10;;;0.10;;
4309;SDS011;2168;53.576;9.980;2024-03-08T04:12:39;0.10;;;0.10;;
4309;SDS011;2168;53.576;9.980;2024-03-08T04:15:04;0.10;;;0.10;;
4309;SDS011;2168;53.576;9.980;2024-03-08T04:17:32;0.10;;;0.10;;
4309;SDS011;2168;53.576;9.980;2024-03-08T04:19:57;0.10;;;0.10;;
4309;SDS011;2168;53.576;9.980;2024-03-08T04:22:22;0.10;;;0.10;;
4309;SDS011;2168;53.576;9.980;2024-03-08T04:24:48;0.17;;;0.17;;
4309;SDS011;2168;53.576;9.980;2024-03-08T04:27:13;0.10;;;0.10;;
4309;SDS011;2168;53.576;9.980;2024-03-08T04:29:39;0.10;;;0.10;;
4309;SDS011;2168;53.576;9.980;2024-03-08T04:32:05;0.10;;;0.10;;
4309;SDS011;2168;53.576;9.980;2024-03-08T04:34:31;0.10;;;0.10;;
4309;SDS011;2168;53.576;9.980;2024-03-08T04:36:57;0.10;;;0.10;;
4309;SDS011;2168;53.576;9.980;2024-03-08T04:39:22;0.10;;;0.10;;
4309;SDS011;2168;53.576;9.980;2024-03-08T04:41:47;0.10;;;0.10;;
4309;SDS011;2168;53.576;9.980;2024-03-08T04:44:13;0.10;;;0.10;;
4309;SDS011;2168;53.576;9.980;2024-03-08T04:46:39;0.10;;;0.10;;
4309;SDS011;2168;53.576;9.980;2024-03-08T04:49:04;0.10;;;0.10;;
4309;SDS011;2168;53.576;9.980;2024-03-08T04:51:29;0.20;;;0.20;;
4309;SDS011;2168;53.576;9.980;2024-03-08T04:53:55;0.20;;;0.20;;
4309;SDS011;2168;53.576;9.980;2024-03-08T04:56:22;0.10;;;0.10;;
4309;SDS011;2168;53.576;9.980;2024-03-08T04:58:47;0.10;;;0.10;;
4309;SDS011;2168;53.576;9.980;2024-03-08T05:01:12;0.10;;;0.10;;
4309;SDS011;2168;53.576;9.980;2024-03-08T05:03:37;0.10;;;0.10;;
4309;SDS011;2168;53.576;9.980;2024-03-08T05:06:03;0.10;;;0.10;;
4309;SDS011;2168;53.576;9.980;2024-03-08T05:08:29;0.10;;;0.10;;
4309;SDS011;2168;53.576;9.980;2024-03-08T05:10:54;0.10;;;0.10;;
4309;SDS011;2168;53.576;9.980;2024-03-08T05:13:19;0.10;;;0.10;;
4309;SDS011;2168;53.576;9.980;2024-03-08T05:15:47;0.10;;;0.10;;
4309;SDS011;2168;53.576;9.980;2024-03-08T05:18:13;0.20;;;0.20;;
4309;SDS011;2168;53.576;9.980;2024-03-08T05:20:39;0.10;;;0.10;;
4309;SDS011;2168;53.576;9.980;2024-03-08T05:23:06;0.10;;;0.10;;
4309;SDS011;2168;53.576;9.980;2024-03-08T05:25:31;0.07;;;0.07;;
4309;SDS011;2168;53.576;9.980;2024-03-08T05:27:56;0.00;;;0.00;;
4309;SDS011;2168;53.576;9.980;2024-03-08T05:30:23;0.10;;;0.10;;
4309;SDS011;2168;53.576;9.980;2024-03-08T05:32:48;0.10;;;0.10;;
4309;SDS011;2168;53.576;9.980;2024-03-08T05:35:13;0.10;;;0.10;;
4309;SDS011;2168;53.576;9.980;2024-03-08T05:37:41;0.10;;;0.10;;
4309;SDS011;2168;53.576;9.980;2024-03-08T05:40:07;0.10;;;0.10;;
4309;SDS011;2168;53.576;9.980;2024-03-08T05:42:37;0.10;;;0.10;;
4309;SDS011;2168;53.576;9.980;2024-03-08T05:45:03;0.10;;;0.10;;
4309;SDS011;2168;53.576;9.980;2024-03-08T05:47:28;0.10;;;0.10;;
4309;SDS011;2168;53.576;9.980;2024-03-08T05:49:54;0.10;;;0.10;;
4309;SDS011;2168;53.576;9.980;2024-03-08T05:52:19;0.13;;;0.13;;
4309;SDS011;2168;53.576;9.980;2024-03-08T05:54:44;0.10;;;0.10;;
4309;SDS011;2168;53.576;9.980;2024-03-08T05:57:11;0.10;;;0.10;;
4309;SDS011;2168;53.576;9.980;2024-03-08T05:59:36;0.10;;;0.10;;
4309;SDS011;2168;53.576;9.980;2024-03-08T06:02:01;0.10;;;0.10;;
4309;SDS011;2168;53.576;9.980;2024-03-08T06:04:27;0.20;;;0.20;;
4309;SDS011;2168;53.576;9.980;2024-03-08T06:06:52;0.10;;;0.10;;
4309;SDS011;2168;53.576;9.980;2024-03-08T06:09:20;0.10;;;0.10;;
4309;SDS011;2168;53.576;9.980;2024-03-08T06:11:48;0.10;;;0.10;;
4309;SDS011;2168;53.576;9.980;2024-03-08T06:14:13;0.10;;;0.10;;
4309;SDS011;2168;53.576;9.980;2024-03-08T06:16:40;0.10;;;0.10;;
4309;SDS011;2168;53.576;9.980;2024-03-08T06:19:05;0.10;;;0.10;;
4309;SDS011;2168;53.576;9.980;2024-03-08T06:21:30;0.10;;;0.10;;
4309;SDS011;2168;53.576;9.980;2024-03-08T06:23:57;0.10;;;0.10;;
4309;SDS011;2168;53.576;9.980;2024-03-08T06:26:22;0.17;;;0.17;;
4309;SDS011;2168;53.576;9.980;2024-03-08T06:28:48;0.10;;;0.10;;
4309;SDS011;2168;53.576;9.980;2024-03-08T06:31:13;0.20;;;0.20;;
4309;SDS011;2168;53.576;9.980;2024-03-08T06:33:39;0.20;;;0.20;;
4309;SDS011;2168;53.576;9.980;2024-03-08T06:36:05;0.20;;;0.20;;
4309;SDS011;2168;53.576;9.980;2024-03-08T06:38:30;0.30;;;0.30;;
4309;SDS011;2168;53.576;9.980;2024-03-08T06:40:55;0.30;;;0.30;;
4309;SDS011;2168;53.576;9.980;2024-03-08T06:43:21;0.50;;;0.50;;
4309;SDS011;2168;53.576;9.980;2024-03-08T06:45:46;0.30;;;0.30;;
4309;SDS011;2168;53.576;9.980;2024-03-08T06:48:15;0.33;;;0.33;;
4309;SDS011;2168;53.576;9.980;2024-03-08T06:50:41;0.47;;;0.47;;
4309;SDS011;2168;53.576;9.980;2024-03-08T06:53:07;0.23;;;0.23;;
4309;SDS011;2168;53.576;9.980;2024-03-08T06:55:32;0.30;;;0.30;;
4309;SDS011;2168;53.576;9.980;2024-03-08T06:57:58;0.20;;;0.20;;
4309;SDS011;2168;53.576;9.980;2024-03-08T07:00:23;0.40;;;0.40;;
4309;SDS011;2168;53.576;9.980;2024-03-08T07:02:51;0.40;;;0.40;;
4309;SDS011;2168;53.576;9.980;2024-03-08T07:05:19;0.30;;;0.30;;
4309;SDS011;2168;53.576;9.980;2024-03-08T07:07:48;0.40;;;0.40;;
4309;SDS011;2168;53.576;9.980;2024-03-08T07:10:14;0.40;;;0.40;;
4309;SDS011;2168;53.576;9.980;2024-03-08T07:12:40;0.50;;;0.50;;
4309;SDS011;2168;53.576;9.980;2024-03-08T07:15:06;0.50;;;0.50;;
4309;SDS011;2168;53.576;9.980;2024-03-08T07:17:31;0.40;;;0.40;;
4309;SDS011;2168;53.576;9.980;2024-03-08T07:19:59;0.40;;;0.40;;
4309;SDS011;2168;53.576;9.980;2024-03-08T07:22:25;0.50;;;0.50;;
4309;SDS011;2168;53.576;9.980;2024-03-08T07:24:50;0.40;;;0.40;;
4309;SDS011;2168;53.576;9.980;2024-03-08T07:27:34;1.10;;;1.10;;
4309;SDS011;2168;53.576;9.980;2024-03-08T07:30:01;0.80;;;0.80;;
4309;SDS011;2168;53.576;9.980;2024-03-08T07:32:27;0.80;;;0.80;;
4309;SDS011;2168;53.576;9.980;2024-03-08T07:34:54;0.80;;;0.80;;
4309;SDS011;2168;53.576;9.980;2024-03-08T07:37:20;0.80;;;0.80;;
4309;SDS011;2168;53.576;9.980;2024-03-08T07:39:46;0.70;;;0.70;;
4309;SDS011;2168;53.576;9.980;2024-03-08T07:42:12;0.70;;;0.70;;
4309;SDS011;2168;53.576;9.980;2024-03-08T07:44:37;0.83;;;0.83;;
4309;SDS011;2168;53.576;9.980;2024-03-08T07:47:02;0.80;;;0.80;;
4309;SDS011;2168;53.576;9.980;2024-03-08T07:49:28;0.60;;;0.60;;
4309;SDS011;2168;53.576;9.980;2024-03-08T07:51:54;0.80;;;0.80;;
4309;SDS011;2168;53.576;9.980;2024-03-08T07:54:20;0.90;;;0.90;;
4309;SDS011;2168;53.576;9.980;2024-03-08T07:56:45;0.77;;;0.77;;
4309;SDS011;2168;53.576;9.980;2024-03-08T07:59:10;1.00;;;1.00;;
4309;SDS011;2168;53.576;9.980;2024-03-08T08:01:37;1.30;;;1.30;;
4309;SDS011;2168;53.576;9.980;2024-03-08T08:04:02;0.77;;;0.77;;
4309;SDS011;2168;53.576;9.980;2024-03-08T08:06:27;1.07;;;1.07;;
4309;SDS011;2168;53.576;9.980;2024-03-08T08:08:52;1.27;;;1.27;;
4309;SDS011;2168;53.576;9.980;2024-03-08T08:11:18;1.10;;;1.10;;
4309;SDS011;2168;53.576;9.980;2024-03-08T08:13:43;0.93;;;0.93;;
4309;SDS011;2168;53.576;9.980;2024-03-08T08:16:09;1.10;;;1.10;;
4309;SDS011;2168;53.576;9.980;2024-03-08T08:18:35;0.87;;;0.87;;
4309;SDS011;2168;53.576;9.980;2024-03-08T08:21:01;1.10;;;1.10;;
4309;SDS011;2168;53.576;9.980;2024-03-08T08:23:26;1.00;;;1.00;;
4309;SDS011;2168;53.576;9.980;2024-03-08T08:25:51;1.27;;;1.27;;
4309;SDS011;2168;53.576;9.980;2024-03-08T08:28:17;2.10;;;2.10;;
4309;SDS011;2168;53.576;9.980;2024-03-08T08:30:43;1.27;;;1.27;;
4309;SDS011;2168;53.576;9.980;2024-03-08T08:33:09;2.53;;;2.53;;
4309;SDS011;2168;53.576;9.980;2024-03-08T08:35:35;1.50;;;1.50;;
4309;SDS011;2168;53.576;9.980;2024-03-08T08:38:00;2.10;;;2.10;;
4309;SDS011;2168;53.576;9.980;2024-03-08T08:40:25;2.20;;;2.20;;
4309;SDS011;2168;53.576;9.980;2024-03-08T08:42:51;1.00;;;1.00;;
4309;SDS011;2168;53.576;9.980;2024-03-08T08:45:17;1.30;;;1.30;;
4309;SDS011;2168;53.576;9.980;2024-03-08T08:47:43;1.10;;;1.10;;
4309;SDS011;2168;53.576;9.980;2024-03-08T08:50:10;0.97;;;0.97;;
4309;SDS011;2168;53.576;9.980;2024-03-08T08:52:37;1.30;;;1.30;;
4309;SDS011;2168;53.576;9.980;2024-03-08T08:55:03;1.90;;;1.90;;
4309;SDS011;2168;53.576;9.980;2024-03-08T08:57:29;1.50;;;1.50;;
4309;SDS011;2168;53.576;9.980;2024-03-08T08:59:55;1.90;;;1.90;;
4309;SDS011;2168;53.576;9.980;2024-03-08T09:02:22;1.10;;;1.10;;
4309;SDS011;2168;53.576;9.980;2024-03-08T09:04:50;1.20;;;1.20;;
4309;SDS011;2168;53.576;9.980;2024-03-08T09:07:16;1.40;;;1.40;;
4309;SDS011;2168;53.576;9.980;2024-03-08T09:09:43;1.30;;;1.30;;
4309;SDS011;2168;53.576;9.980;2024-03-08T09:12:09;1.90;;;1.90;;
4309;SDS011;2168;53.576;9.980;2024-03-08T09:14:38;1.73;;;1.73;;
4309;SDS011;2168;53.576;9.980;2024-03-08T09:17:03;1.57;;;1.57;;
4309;SDS011;2168;53.576;9.980;2024-03-08T09:19:29;1.63;;;1.63;;
4309;SDS011;2168;53.576;9.980;2024-03-08T09:21:54;1.50;;;1.50;;
4309;SDS011;2168;53.576;9.980;2024-03-08T09:24:20;1.63;;;1.63;;
4309;SDS011;2168;53.576;9.980;2024-03-08T09:26:45;1.23;;;1.23;;
4309;SDS011;2168;53.576;9.980;2024-03-08T09:29:11;2.37;;;2.37;;
4309;SDS011;2168;53.576;9.980;2024-03-08T09:31:36;1.00;;;1.00;;
4309;SDS011;2168;53.576;9.980;2024-03-08T09:34:03;1.57;;;1.57;;
4309;SDS011;2168;53.576;9.980;2024-03-08T09:36:28;2.67;;;2.67;;
4309;SDS011;2168;53.576;9.980;2024-03-08T09:38:55;1.77;;;1.77;;
4309;SDS011;2168;53.576;9.980;2024-03-08T09:41:21;2.30;;;2.30;;
4309;SDS011;2168;53.576;9.980;2024-03-08T09:43:47;1.60;;;1.60;;
4309;SDS011;2168;53.576;9.980;2024-03-08T09:46:13;1.50;;;1.50;;
4309;SDS011;2168;53.576;9.980;2024-03-08T09:48:42;1.20;;;1.20;;
4309;SDS011;2168;53.576;9.980;2024-03-08T09:51:14;1.30;;;1.30;;
4309;SDS011;2168;53.576;9.980;2024-03-08T09:53:47;0.93;;;0.93;;
4309;SDS011;2168;53.576;9.980;2024-03-08T09:56:24;1.17;;;1.17;;
4309;SDS011;2168;53.576;9.980;2024-03-08T09:58:52;1.30;;;1.30;;
4309;SDS011;2168;53.576;9.980;2024-03-08T10:01:36;1.17;;;1.17;;
4309;SDS011;2168;53.576;9.980;2024-03-08T10:04:05;1.60;;;1.60;;
4309;SDS011;2168;53.576;9.980;2024-03-08T10:06:31;1.30;;;1.30;;
4309;SDS011;2168;53.576;9.980;2024-03-08T10:08:57;1.33;;;1.33;;
4309;SDS011;2168;53.576;9.980;2024-03-08T10:11:22;1.50;;;1.50;;
4309;SDS011;2168;53.576;9.980;2024-03-08T10:13:48;1.30;;;1.30;;
4309;SDS011;2168;53.576;9.980;2024-03-08T10:16:13;1.43;;;1.43;;
4309;SDS011;2168;53.576;9.980;2024-03-08T10:18:39;1.20;;;1.20;;
4309;SDS011;2168;53.576;9.980;2024-03-08T10:21:07;1.10;;;1.10;;
4309;SDS011;2168;53.576;9.980;2024-03-08T10:23:33;1.10;;;1.10;;
4309;SDS011;2168;53.576;9.980;2024-03-08T10:26:18;1.03;;;1.03;;
4309;SDS011;2168;53.576;9.980;2024-03-08T10:28:46;1.20;;;1.20;;
4309;SDS011;2168;53.576;9.980;2024-03-08T10:31:18;1.30;;;1.30;;
4309;SDS011;2168;53.576;9.980;2024-03-08T10:33:44;1.60;;;1.60;;
4309;SDS011;2168;53.576;9.980;2024-03-08T10:36:10;1.30;;;1.30;;
4309;SDS011;2168;53.576;9.980;2024-03-08T10:38:39;1.47;;;1.47;;
4309;SDS011;2168;53.576;9.980;2024-03-08T10:41:09;1.17;;;1.17;;
4309;SDS011;2168;53.576;9.980;2024-03-08T10:43:47;1.17;;;1.17;;
4309;SDS011;2168;53.576;9.980;2024-03-08T10:46:21;1.43;;;1.43;;
4309;SDS011;2168;53.576;9.980;2024-03-08T10:48:51;2.00;;;2.00;;
4309;SDS011;2168;53.576;9.980;2024-03-08T10:51:17;1.13;;;1.13;;
4309;SDS011;2168;53.576;9.980;2024-03-08T10:53:45;0.90;;;0.90;;
4309;SDS011;2168;53.576;9.980;2024-03-08T10:56:11;1.30;;;1.30;;
4309;SDS011;2168;53.576;9.980;2024-03-08T10:58:39;0.97;;;0.97;;
4309;SDS011;2168;53.576;9.980;2024-03-08T11:01:05;1.67;;;1.67;;
4309;SDS011;2168;53.576;9.980;2024-03-08T11:06:13;1.10;;;1.10;;
4309;SDS011;2168;53.576;9.980;2024-03-08T11:08:40;1.30;;;1.30;;
4309;SDS011;2168;53.576;9.980;2024-03-08T11:11:05;1.60;;;1.60;;
4309;SDS011;2168;53.576;9.980;2024-03-08T11:13:34;1.30;;;1.30;;
4309;SDS011;2168;53.576;9.980;2024-03-08T11:16:00;1.70;;;1.70;;
4309;SDS011;2168;53.576;9.980;2024-03-08T11:18:26;1.90;;;1.90;;
4309;SDS011;2168;53.576;9.980;2024-03-08T11:20:54;1.20;;;1.20;;
4309;SDS011;2168;53.576;9.980;2024-03-08T11:23:19;1.00;;;1.00;;
4309;SDS011;2168;53.576;9.980;2024-03-08T11:25:47;1.97;;;1.97;;
4309;SDS011;2168;53.576;9.980;2024-03-08T11:28:18;1.00;;;1.00;;
4309;SDS011;2168;53.576;9.980;2024-03-08T11:30:44;1.10;;;1.10;;
4309;SDS011;2168;53.576;9.980;2024-03-08T11:33:13;1.37;;;1.37;;
4309;SDS011;2168;53.576;9.980;2024-03-08T11:35:42;1.40;;;1.40;;
4309;SDS011;2168;53.576;9.980;2024-03-08T11:38:16;1.10;;;1.10;;
4309;SDS011;2168;53.576;9.980;2024-03-08T11:40:45;1.10;;;1.10;;
4309;SDS011;2168;53.576;9.980;2024-03-08T11:43:15;1.00;;;1.00;;
4309;SDS011;2168;53.576;9.980;2024-03-08T11:45:41;1.30;;;1.30;;
4309;SDS011;2168;53.576;9.980;2024-03-08T11:48:06;0.90;;;0.90;;
4309;SDS011;2168;53.576;9.980;2024-03-08T11:50:32;0.80;;;0.80;;
4309;SDS011;2168;53.576;9.980;2024-03-08T11:53:04;1.30;;;1.30;;
4309;SDS011;2168;53.576;9.980;2024-03-08T11:55:30;1.10;;;1.10;;
4309;SDS011;2168;53.576;9.980;2024-03-08T11:58:00;1.07;;;1.07;;
4309;SDS011;2168;53.576;9.980;2024-03-08T12:00:25;4.47;;;4.47;;
4309;SDS011;2168;53.576;9.980;2024-03-08T12:03:00;0.97;;;0.97;;
4309;SDS011;2168;53.576;9.980;2024-03-08T12:05:26;0.90;;;0.90;;
4309;SDS011;2168;53.576;9.980;2024-03-08T12:07:57;1.40;;;1.40;;
4309;SDS011;2168;53.576;9.980;2024-03-08T12:10:23;1.70;;;1.70;;
4309;SDS011;2168;53.576;9.980;2024-03-08T12:12:51;1.00;;;1.00;;
4309;SDS011;2168;53.576;9.980;2024-03-08T12:15:16;2.37;;;2.37;;
4309;SDS011;2168;53.576;9.980;2024-03-08T12:17:43;1.60;;;1.60;;
4309;SDS011;2168;53.576;9.980;2024-03-08T12:20:13;0.83;;;0.83;;
4309;SDS011;2168;53.576;9.980;2024-03-08T12:22:43;1.20;;;1.20;;
4309;SDS011;2168;53.576;9.980;2024-03-08T12:25:09;0.80;;;0.80;;
4309;SDS011;2168;53.576;9.980;2024-03-08T12:27:36;0.93;;;0.93;;
4309;SDS011;2168;53.576;9.980;2024-03-08T12:32:56;0.87;;;0.87;;
4309;SDS011;2168;53.576;9.980;2024-03-08T12:35:28;1.07;;;1.07;;
4309;SDS011;2168;53.576;9.980;2024-03-08T12:37:57;0.73;;;0.73;;
4309;SDS011;2168;53.576;9.980;2024-03-08T12:40:26;0.90;;;0.90;;
4309;SDS011;2168;53.576;9.980;2024-03-08T12:42:53;0.70;;;0.70;;
4309;SDS011;2168;53.576;9.980;2024-03-08T12:45:18;1.00;;;1.00;;
4309;SDS011;2168;53.576;9.980;2024-03-08T12:47:43;0.93;;;0.93;;
4309;SDS011;2168;53.576;9.980;2024-03-08T12:50:09;1.40;;;1.40;;
4309;SDS011;2168;53.576;9.980;2024-03-08T12:52:35;1.80;;;1.80;;
4309;SDS011;2168;53.576;9.980;2024-03-08T12:55:00;1.30;;;1.30;;
4309;SDS011;2168;53.576;9.980;2024-03-08T12:57:28;1.03;;;1.03;;
4309;SDS011;2168;53.576;9.980;2024-03-08T12:59:54;1.03;;;1.03;;
4309;SDS011;2168;53.576;9.980;2024-03-08T13:02:19;1.10;;;1.10;;
4309;SDS011;2168;53.576;9.980;2024-03-08T13:04:45;1.47;;;1.47;;
4309;SDS011;2168;53.576;9.980;2024-03-08T13:07:10;1.20;;;1.20;;
4309;SDS011;2168;53.576;9.980;2024-03-08T13:09:36;1.70;;;1.70;;
4309;SDS011;2168;53.576;9.980;2024-03-08T13:12:02;1.50;;;1.50;;
4309;SDS011;2168;53.576;9.980;2024-03-08T13:14:27;1.50;;;1.50;;
4309;SDS011;2168;53.576;9.980;2024-03-08T13:16:56;1.70;;;1.70;;
4309;SDS011;2168;53.576;9.980;2024-03-08T13:19:23;1.00;;;1.00;;
4309;SDS011;2168;53.576;9.980;2024-03-08T13:21:49;1.10;;;1.10;;
4309;SDS011;2168;53.576;9.980;2024-03-08T13:24:14;1.97;;;1.97;;
4309;SDS011;2168;53.576;9.980;2024-03-08T13:26:41;1.20;;;1.20;;
4309;SDS011;2168;53.576;9.980;2024-03-08T13:29:08;1.10;;;1.10;;
4309;SDS011;2168;53.576;9.980;2024-03-08T13:31:33;1.27;;;1.27;;
4309;SDS011;2168;53.576;9.980;2024-03-08T13:34:01;1.70;;;1.70;;
4309;SDS011;2168;53.576;9.980;2024-03-08T13:36:26;1.17;;;1.17;;
4309;SDS011;2168;53.576;9.980;2024-03-08T13:39:00;1.00;;;1.00;;
4309;SDS011;2168;53.576;9.980;2024-03-08T13:41:25;1.77;;;1.77;;
4309;SDS011;2168;53.576;9.980;2024-03-08T13:43:50;1.10;;;1.10;;
4309;SDS011;2168;53.576;9.980;2024-03-08T13:46:16;1.70;;;1.70;;
4309;SDS011;2168;53.576;9.980;2024-03-08T13:48:41;1.60;;;1.60;;
4309;SDS011;2168;53.576;9.980;2024-03-08T13:51:08;1.00;;;1.00;;
4309;SDS011;2168;53.576;9.980;2024-03-08T13:53:36;0.80;;;0.80;;
4309;SDS011;2168;53.576;9.980;2024-03-08T13:56:02;2.10;;;2.10;;
4309;SDS011;2168;53.576;9.980;2024-03-08T13:58:27;1.30;;;1.30;;
4309;SDS011;2168;53.576;9.980;2024-03-08T14:00:52;1.27;;;1.27;;
4309;SDS011;2168;53.576;9.980;2024-03-08T14:03:17;1.20;;;1.20;;
4309;SDS011;2168;53.576;9.980;2024-03-08T14:05:43;0.93;;;0.93;;
4309;SDS011;2168;53.576;9.980;2024-03-08T14:08:08;2.37;;;2.37;;
4309;SDS011;2168;53.576;9.980;2024-03-08T14:10:34;1.30;;;1.30;;
4309;SDS011;2168;53.576;9.980;2024-03-08T14:13:00;1.23;;;1.23;;
4309;SDS011;2168;53.576;9.980;2024-03-08T14:15:25;1.30;;;1.30;;
4309;SDS011;2168;53.576;9.980;2024-03-08T14:17:55;1.10;;;1.10;;
4309;SDS011;2168;53.576;9.980;2024-03-08T14:20:20;2.40;;;2.40;;
4309;SDS011;2168;53.576;9.980;2024-03-08T14:22:50;1.13;;;1.13;;
4309;SDS011;2168;53.576;9.980;2024-03-08T14:25:16;1.63;;;1.63;;
4309;SDS011;2168;53.576;9.980;2024-03-08T14:27:45;1.33;;;1.33;;
4309;SDS011;2168;53.576;9.980;2024-03-08T14:30:11;1.40;;;1.40;;
4309;SDS011;2168;53.576;9.980;2024-03-08T14:32:36;1.20;;;1.20;;
4309;SDS011;2168;53.576;9.980;2024-03-08T14:35:03;1.40;;;1.40;;
4309;SDS011;2168;53.576;9.980;2024-03-08T14:37:29;0.80;;;0.80;;
4309;SDS011;2168;53.576;9.980;2024-03-08T14:39:54;2.03;;;2.03;;
4309;SDS011;2168;53.576;9.980;2024-03-08T14:42:19;3.13;;;3.13;;
4309;SDS011;2168;53.576;9.980;2024-03-08T14:44:47;1.30;;;1.30;;
4309;SDS011;2168;53.576;9.980;2024-03-08T14:47:16;1.50;;;1.50;;
4309;SDS011;2168;53.576;9.980;2024-03-08T14:49:41;1.07;;;1.07;;
4309;SDS011;2168;53.576;9.980;2024-03-08T14:52:07;1.00;;;1.00;;
4309;SDS011;2168;53.576;9.980;2024-03-08T14:54:52;1.87;;;1.87;;
4309;SDS011;2168;53.576;9.980;2024-03-08T14:57:17;1.50;;;1.50;;
4309;SDS011;2168;53.576;9.980;2024-03-08T14:59:42;1.20;;;1.20;;
4309;SDS011;2168;53.576;9.980;2024-03-08T15:02:08;1.00;;;1.00;;
4309;SDS011;2168;53.576;9.980;2024-03-08T15:04:35;1.00;;;1.00;;
4309;SDS011;2168;53.576;9.980;2024-03-08T15:07:00;1.23;;;1.23;;
4309;SDS011;2168;53.576;9.980;2024-03-08T15:09:27;1.10;;;1.10;;
4309;SDS011;2168;53.576;9.980;2024-03-08T15:11:52;1.70;;;1.70;;
4309;SDS011;2168;53.576;9.980;2024-03-08T15:14:17;0.87;;;0.87;;
4309;SDS011;2168;53.576;9.980;2024-03-08T15:16:44;1.87;;;1.87;;
4309;SDS011;2168;53.576;9.980;2024-03-08T15:19:09;0.90;;;0.90;;